createdAt,value
2022-09-21T00:01:27.390Z,12.97
2022-09-21T00:03:56.808Z,13.00
2022-09-21T00:06:25.441Z,12.99
2022-09-21T00:08:53.089Z,13.00
2022-09-21T00:11:24.774Z,12.95
2022-09-21T00:13:55.293Z,13.09
2022-09-21T00:16:23.794Z,12.95
2022-09-21T00:18:51.485Z,12.93
2022-09-21T00:21:19.291Z,12.87
2022-09-21T00:23:46.880Z,12.76
2022-09-21T00:26:16.894Z,12.66
2022-09-21T00:28:44.667Z,12.82
2022-09-21T00:31:14.484Z,12.52
2022-09-21T00:33:43.487Z,12.66
2022-09-21T00:36:14.843Z,12.83
2022-09-21T00:38:42.548Z,12.85
2022-09-21T00:41:10.731Z,12.97
2022-09-21T00:43:43.078Z,12.97
2022-09-21T00:46:16.209Z,12.87
2022-09-21T00:48:43.599Z,13.02
2022-09-21T00:51:11.231Z,13.02
2022-09-21T00:53:38.788Z,12.86
2022-09-21T00:56:06.956Z,12.96
2022-09-21T00:58:40.488Z,12.98
2022-09-21T01:01:08.095Z,12.88
2022-09-21T01:03:35.716Z,12.87
2022-09-21T01:06:03.533Z,12.89
2022-09-21T01:08:31.498Z,12.93
2022-09-21T01:11:22.829Z,12.89
2022-09-21T01:14:08.831Z,12.85
2022-09-21T01:17:03.686Z,12.77
2022-09-21T01:19:39.840Z,12.77
2022-09-21T01:22:33.015Z,12.55
2022-09-21T01:25:21.858Z,12.47
2022-09-21T01:28:07.115Z,12.53
2022-09-21T01:30:36.364Z,12.57
2022-09-21T01:33:13.973Z,12.61
2022-09-21T01:35:48.576Z,12.57
2022-09-21T01:38:22.095Z,12.48
2022-09-21T01:40:52.924Z,12.42
2022-09-21T01:43:31.814Z,12.41
2022-09-21T01:46:02.087Z,12.47
2022-09-21T01:48:35.140Z,12.33
2022-09-21T01:51:06.378Z,12.42
2022-09-21T01:53:49.536Z,12.39
2022-09-21T01:56:31.061Z,12.49
2022-09-21T01:59:07.484Z,12.49
2022-09-21T02:01:52.311Z,12.48
2022-09-21T02:04:19.932Z,12.56
2022-09-21T02:06:47.843Z,12.57
2022-09-21T02:09:15.201Z,12.65
2022-09-21T02:11:44.861Z,12.70
2022-09-21T02:14:18.441Z,12.59
2022-09-21T02:16:58.320Z,12.64
2022-09-21T02:19:54.323Z,12.53
2022-09-21T02:22:36.225Z,12.74
2022-09-21T02:25:10.633Z,12.67
2022-09-21T02:27:40.934Z,12.77
2022-09-21T02:30:18.135Z,12.76
2022-09-21T02:32:51.376Z,12.79
2022-09-21T02:36:09.903Z,12.87
2022-09-21T02:38:53.468Z,12.81
2022-09-21T02:41:28.308Z,12.82
2022-09-21T02:44:01.428Z,12.88
2022-09-21T02:46:29.615Z,12.84
2022-09-21T02:49:01.164Z,12.78
2022-09-21T02:51:33.912Z,12.78
2022-09-21T02:54:04.653Z,12.78
2022-09-21T02:56:32.110Z,12.74
2022-09-21T02:59:02.152Z,12.75
2022-09-21T03:01:31.073Z,12.67
2022-09-21T03:03:58.848Z,12.59
2022-09-21T03:06:26.424Z,12.52
2022-09-21T03:08:53.989Z,12.56
2022-09-21T03:11:21.258Z,12.42
2022-09-21T03:13:48.554Z,12.46
2022-09-21T03:16:16.421Z,12.56
2022-09-21T03:18:44.330Z,12.69
2022-09-21T03:21:12.250Z,12.74
2022-09-21T03:23:40.395Z,12.62
2022-09-21T03:26:08.518Z,12.68
2022-09-21T03:28:35.875Z,12.63
2022-09-21T03:31:03.477Z,12.71
2022-09-21T03:33:30.836Z,12.79
2022-09-21T03:35:58.179Z,12.88
2022-09-21T03:38:26.866Z,12.90
2022-09-21T03:40:57.796Z,12.96
2022-09-21T03:43:25.465Z,12.93
2022-09-21T03:45:53.330Z,12.96
2022-09-21T03:48:21.602Z,12.95
2022-09-21T03:50:48.946Z,12.98
2022-09-21T03:53:16.882Z,12.90
2022-09-21T03:55:44.191Z,12.96
2022-09-21T03:58:11.478Z,13.04
2022-09-21T04:00:39.292Z,13.01
2022-09-21T04:03:06.887Z,12.96
2022-09-21T04:05:34.450Z,12.92
2022-09-21T04:08:02.214Z,12.92
2022-09-21T04:10:33.153Z,12.84
2022-09-21T04:13:02.067Z,12.80
2022-09-21T04:15:29.992Z,12.76
2022-09-21T04:17:57.389Z,12.66
2022-09-21T04:20:24.710Z,12.49
2022-09-21T04:22:52.684Z,12.62
2022-09-21T04:25:20.575Z,12.47
2022-09-21T04:27:47.910Z,12.42
2022-09-21T04:30:16.599Z,12.51
2022-09-21T04:32:44.083Z,12.40
2022-09-21T04:35:11.347Z,12.57
2022-09-21T04:37:38.898Z,12.57
2022-09-21T04:40:07.643Z,12.58
2022-09-21T04:42:35.011Z,12.44
2022-09-21T04:45:03.331Z,12.45
2022-09-21T04:47:31.347Z,12.47
2022-09-21T04:49:58.674Z,12.37
2022-09-21T04:52:26.435Z,12.56
2022-09-21T04:54:53.751Z,12.44
2022-09-21T04:57:21.067Z,12.41
2022-09-21T04:59:48.653Z,12.46
2022-09-21T05:02:15.960Z,12.33
2022-09-21T05:04:46.397Z,12.33
2022-09-21T05:07:16.918Z,12.20
2022-09-21T05:10:02.847Z,12.28
2022-09-21T05:12:35.963Z,12.37
2022-09-21T05:15:05.842Z,12.45
2022-09-21T05:17:35.560Z,12.40
2022-09-21T05:20:03.723Z,12.54
2022-09-21T05:22:31.019Z,12.56
2022-09-21T05:24:58.595Z,12.53
2022-09-21T05:27:26.082Z,12.39
2022-09-21T05:29:53.902Z,12.36
2022-09-21T05:32:41.790Z,12.22
2022-09-21T05:35:29.124Z,12.15
2022-09-21T05:38:04.979Z,12.41
2022-09-21T05:40:33.063Z,12.37
2022-09-21T05:43:00.887Z,12.64
2022-09-21T05:45:28.984Z,12.79
2022-09-21T05:48:19.834Z,12.98
2022-09-21T05:51:09.042Z,13.13
2022-09-21T05:54:14.100Z,13.23
2022-09-21T05:57:05.048Z,13.27
2022-09-21T06:00:06.361Z,13.12
2022-09-21T06:02:50.905Z,13.18
2022-09-21T06:05:18.868Z,13.12
2022-09-21T06:07:46.153Z,13.10
2022-09-21T06:10:14.035Z,13.34
2022-09-21T06:12:42.332Z,13.51
2022-09-21T06:15:13.680Z,13.36
2022-09-21T06:17:41.214Z,13.38
2022-09-21T06:20:09.474Z,13.38
2022-09-21T06:22:36.755Z,13.56
2022-09-21T06:25:04.261Z,13.63
2022-09-21T06:27:31.828Z,13.87
2022-09-21T06:29:59.154Z,14.02
2022-09-21T06:32:26.683Z,14.33
2022-09-21T06:34:54.254Z,14.36
2022-09-21T06:37:21.584Z,14.30
2022-09-21T06:39:48.851Z,14.62
2022-09-21T06:42:16.469Z,14.73
2022-09-21T06:44:44.271Z,14.93
2022-09-21T06:47:11.595Z,15.21
2022-09-21T06:49:42.349Z,14.95
2022-09-21T06:52:10.137Z,15.21
2022-09-21T06:54:41.027Z,15.21
2022-09-21T06:57:08.577Z,15.29
2022-09-21T06:59:35.896Z,15.22
2022-09-21T07:02:03.820Z,15.24
2022-09-21T07:04:31.956Z,14.97
2022-09-21T07:07:02.633Z,15.33
2022-09-21T07:12:18.967Z,15.34
2022-09-21T07:14:46.592Z,15.65
2022-09-21T07:17:15.735Z,15.69
2022-09-21T07:19:43.220Z,15.78
2022-09-21T07:22:10.776Z,15.63
2022-09-21T07:24:38.064Z,15.82
2022-09-21T07:27:05.388Z,15.85
2022-09-21T07:29:32.926Z,15.70
2022-09-21T07:32:00.296Z,15.58
2022-09-21T07:34:27.635Z,15.87
2022-09-21T07:36:55.212Z,15.99
2022-09-21T07:39:22.504Z,16.02
2022-09-21T07:41:49.805Z,16.11
2022-09-21T07:44:17.435Z,16.19
2022-09-21T07:46:48.220Z,16.28
2022-09-21T07:49:15.653Z,15.89
2022-09-21T07:51:43.570Z,16.14
2022-09-21T07:54:10.989Z,16.30
2022-09-21T07:56:38.311Z,16.38
2022-09-21T07:59:06.008Z,16.34
2022-09-21T08:01:35.164Z,16.32
2022-09-21T08:04:04.318Z,16.61
2022-09-21T08:06:33.056Z,16.66
2022-09-21T08:09:01.342Z,16.69
2022-09-21T08:11:30.249Z,16.93
2022-09-21T08:14:00.028Z,17.12
2022-09-21T08:16:29.079Z,17.08
2022-09-21T08:19:20.363Z,17.16
2022-09-21T08:21:54.917Z,17.30
2022-09-21T08:24:26.668Z,17.18
2022-09-21T08:26:55.747Z,17.56
2022-09-21T08:29:25.440Z,17.73
2022-09-21T08:31:56.207Z,17.88
2022-09-21T08:34:24.079Z,17.93
2022-09-21T08:36:55.200Z,17.65
2022-09-21T08:39:23.943Z,17.93
2022-09-21T08:42:03.578Z,17.83
2022-09-21T08:44:48.763Z,18.13
2022-09-21T08:47:19.918Z,18.23
2022-09-21T08:49:51.552Z,18.08
2022-09-21T08:52:19.711Z,17.92
2022-09-21T08:55:18.700Z,18.08
2022-09-21T08:57:46.062Z,18.20
2022-09-21T09:00:15.919Z,18.14
2022-09-21T09:03:04.224Z,18.15
2022-09-21T09:05:55.760Z,18.02
2022-09-21T09:08:58.515Z,17.95
2022-09-21T09:11:52.752Z,17.91
2022-09-21T09:14:36.628Z,17.95
2022-09-21T09:17:19.007Z,17.99
2022-09-21T09:20:15.075Z,18.23
2022-09-21T09:22:57.975Z,18.15
2022-09-21T09:25:25.276Z,18.00
2022-09-21T09:27:58.863Z,18.00
2022-09-21T09:30:28.535Z,18.22
2022-09-21T09:33:02.135Z,18.27
2022-09-21T09:35:33.311Z,18.17
2022-09-21T09:38:25.975Z,18.03
2022-09-21T09:41:05.691Z,18.27
2022-09-21T09:43:36.240Z,18.35
2022-09-21T09:46:19.410Z,18.22
2022-09-21T09:48:58.807Z,18.40
2022-09-21T09:51:26.823Z,18.28
2022-09-21T09:53:58.320Z,18.47
2022-09-21T09:56:25.648Z,18.55
2022-09-21T09:58:57.407Z,18.79
2022-09-21T10:01:44.296Z,18.50
2022-09-21T10:04:13.847Z,18.82
2022-09-21T10:06:46.098Z,18.92
2022-09-21T10:09:25.683Z,18.89
2022-09-21T10:11:57.029Z,18.88
2022-09-21T10:14:25.819Z,19.11
2022-09-21T10:16:53.653Z,18.81
2022-09-21T10:19:23.708Z,18.92
2022-09-21T10:21:56.352Z,19.09
2022-09-21T10:24:26.899Z,19.17
2022-09-21T10:26:56.762Z,19.25
2022-09-21T10:29:23.968Z,19.14
2022-09-21T10:32:00.367Z,18.97
2022-09-21T10:34:30.423Z,19.17
2022-09-21T10:37:00.114Z,18.71
2022-09-21T10:39:32.142Z,18.82
2022-09-21T10:41:59.382Z,18.76
2022-09-21T10:44:29.648Z,18.82
2022-09-21T10:46:58.616Z,18.97
2022-09-21T10:49:27.567Z,19.14
2022-09-21T10:51:57.537Z,19.21
2022-09-21T10:54:28.481Z,19.32
2022-09-21T10:57:03.429Z,19.45
2022-09-21T10:59:33.210Z,19.43
2022-09-21T11:02:02.809Z,19.45
2022-09-21T11:04:39.903Z,19.48
2022-09-21T11:07:15.580Z,19.37
2022-09-21T11:09:53.818Z,19.67
2022-09-21T11:12:43.092Z,19.64
2022-09-21T11:15:30.798Z,19.66
2022-09-21T11:18:13.030Z,19.26
2022-09-21T11:20:49.929Z,19.22
2022-09-21T11:23:32.689Z,19.32
2022-09-21T11:26:35.157Z,19.32
2022-09-21T11:29:08.952Z,19.31
2022-09-21T11:31:55.187Z,19.53
2022-09-21T11:34:54.181Z,19.49
2022-09-21T11:37:30.907Z,19.54
2022-09-21T11:40:24.586Z,19.58
2022-09-21T11:43:13.615Z,19.50
2022-09-21T11:46:05.740Z,19.51
2022-09-21T11:49:18.223Z,19.49
2022-09-21T11:52:09.170Z,19.56
2022-09-21T11:55:18.875Z,19.76
2022-09-21T11:57:57.105Z,19.60
2022-09-21T12:00:26.600Z,19.59
2022-09-21T12:03:16.032Z,19.66
2022-09-21T12:06:01.729Z,19.77
2022-09-21T12:09:20.250Z,19.56
2022-09-21T12:12:02.563Z,19.47
2022-09-21T12:14:42.571Z,19.23
2022-09-21T12:17:32.305Z,18.92
2022-09-21T12:20:15.748Z,18.86
2022-09-21T12:22:45.403Z,19.04
2022-09-21T12:25:26.342Z,19.08
2022-09-21T12:28:20.820Z,19.33
2022-09-21T12:30:51.368Z,19.31
2022-09-21T12:33:31.467Z,19.43
2022-09-21T12:36:07.912Z,19.63
2022-09-21T12:38:41.035Z,19.54
2022-09-21T12:41:17.959Z,19.62
2022-09-21T12:44:00.991Z,19.56
2022-09-21T12:46:32.332Z,19.78
2022-09-21T12:49:02.038Z,19.43
2022-09-21T12:51:40.478Z,19.43
2022-09-21T12:54:30.936Z,19.11
2022-09-21T12:57:42.529Z,18.92
2022-09-21T13:00:11.916Z,18.85
2022-09-21T13:02:50.789Z,18.80
2022-09-21T13:05:41.419Z,18.69
2022-09-21T13:08:17.460Z,18.64
2022-09-21T13:10:54.705Z,18.56
2022-09-21T13:13:29.585Z,18.57
2022-09-21T13:16:04.533Z,18.75
2022-09-21T13:18:36.402Z,18.56
2022-09-21T13:21:26.292Z,18.59
2022-09-21T13:23:57.561Z,18.72
2022-09-21T13:26:39.032Z,18.81
2022-09-21T13:29:27.623Z,18.84
2022-09-21T13:32:11.226Z,19.06
2022-09-21T13:34:43.326Z,18.94
2022-09-21T13:37:25.577Z,19.04
2022-09-21T13:40:16.187Z,19.07
2022-09-21T13:42:48.538Z,19.14
2022-09-21T13:45:18.674Z,18.97
2022-09-21T13:47:48.000Z,18.91
2022-09-21T13:50:37.116Z,19.13
2022-09-21T13:53:25.536Z,19.16
2022-09-21T13:56:02.105Z,19.21
2022-09-21T13:58:41.090Z,19.30
2022-09-21T14:01:47.213Z,19.30
2022-09-21T14:04:25.383Z,19.59
2022-09-21T14:06:54.198Z,19.53
2022-09-21T14:09:29.547Z,19.28
2022-09-21T14:12:01.624Z,19.25
2022-09-21T14:14:36.043Z,19.37
2022-09-21T14:17:49.314Z,19.28
2022-09-21T14:20:32.790Z,19.23
2022-09-21T14:23:28.394Z,19.17
2022-09-21T14:25:57.862Z,19.02
2022-09-21T14:28:34.762Z,18.95
2022-09-21T14:31:07.211Z,18.96
2022-09-21T14:34:01.659Z,19.07
2022-09-21T14:36:38.348Z,19.01
2022-09-21T14:39:07.859Z,18.86
2022-09-21T14:41:40.729Z,18.76
2022-09-21T14:44:19.974Z,18.85
2022-09-21T14:46:50.849Z,18.62
2022-09-21T14:49:19.355Z,18.66
2022-09-21T14:52:12.947Z,18.40
2022-09-21T14:55:17.174Z,18.51
2022-09-21T14:57:55.770Z,18.68
2022-09-21T15:00:35.486Z,18.51
2022-09-21T15:03:22.219Z,18.58
2022-09-21T15:05:55.066Z,18.51
2022-09-21T15:09:09.279Z,18.48
2022-09-21T15:11:41.061Z,18.52
2022-09-21T15:14:34.763Z,18.60
2022-09-21T15:17:19.599Z,18.46
2022-09-21T15:19:47.170Z,18.31
2022-09-21T15:22:22.270Z,18.53
2022-09-21T15:25:02.772Z,18.36
2022-09-21T15:27:32.915Z,18.40
2022-09-21T15:30:02.473Z,18.38
2022-09-21T15:32:36.698Z,18.29
2022-09-21T15:35:24.717Z,18.36
2022-09-21T15:37:52.479Z,18.25
2022-09-21T15:40:24.613Z,18.30
2022-09-21T15:43:00.862Z,18.30
2022-09-21T15:45:30.460Z,18.21
2022-09-21T15:47:58.378Z,18.02
2022-09-21T15:50:27.297Z,18.06
2022-09-21T15:52:59.699Z,18.19
2022-09-21T15:55:30.270Z,18.27
2022-09-21T15:57:58.120Z,18.29
2022-09-21T16:00:26.397Z,18.35
2022-09-21T16:03:19.870Z,18.07
2022-09-21T16:05:49.924Z,18.24
2022-09-21T16:08:31.443Z,18.03
2022-09-21T16:11:14.128Z,17.90
2022-09-21T16:14:04.706Z,17.99
2022-09-21T16:16:32.160Z,17.92
2022-09-21T16:19:00.116Z,18.02
2022-09-21T16:21:35.139Z,17.98
2022-09-21T16:24:20.489Z,17.93
2022-09-21T16:27:03.268Z,17.66
2022-09-21T16:29:39.297Z,17.53
2022-09-21T16:32:18.817Z,17.48
2022-09-21T16:34:48.258Z,17.65
2022-09-21T16:37:24.371Z,17.69
2022-09-21T16:39:52.999Z,17.65
2022-09-21T16:42:21.279Z,17.61
2022-09-21T16:44:48.928Z,17.69
2022-09-21T16:47:22.780Z,17.49
2022-09-21T16:49:50.375Z,17.42
2022-09-21T16:52:18.120Z,17.34
2022-09-21T16:54:47.591Z,17.33
2022-09-21T16:57:14.894Z,17.38
2022-09-21T16:59:42.845Z,17.31
2022-09-21T17:02:12.222Z,17.30
2022-09-21T17:04:40.171Z,17.33
2022-09-21T17:07:13.450Z,17.19
2022-09-21T17:09:44.373Z,17.18
2022-09-21T17:12:17.532Z,17.15
2022-09-21T17:14:47.028Z,17.15
2022-09-21T17:17:20.922Z,17.09
2022-09-21T17:19:50.113Z,17.02
2022-09-21T17:22:18.437Z,16.99
2022-09-21T17:24:51.366Z,16.90
2022-09-21T17:27:21.833Z,16.75
2022-09-21T17:29:50.034Z,16.80
2022-09-21T17:32:21.679Z,16.68
2022-09-21T17:35:01.858Z,16.68
2022-09-21T17:37:29.914Z,16.81
2022-09-21T17:39:57.538Z,16.78
2022-09-21T17:42:25.977Z,16.75
2022-09-21T17:45:12.389Z,16.77
2022-09-21T17:47:40.855Z,16.77
2022-09-21T17:50:17.558Z,16.77
2022-09-21T17:53:04.291Z,16.61
2022-09-21T17:55:32.075Z,16.50
2022-09-21T17:58:25.772Z,16.50
2022-09-21T18:01:12.795Z,16.56
2022-09-21T18:03:44.487Z,16.47
2022-09-21T18:06:12.438Z,16.49
2022-09-21T18:08:40.966Z,16.26
2022-09-21T18:11:27.024Z,16.16
2022-09-21T18:14:06.937Z,16.18
2022-09-21T18:17:11.541Z,16.18
2022-09-21T18:19:55.027Z,16.10
2022-09-21T18:22:55.114Z,16.02
2022-09-21T18:25:32.482Z,16.10
2022-09-21T18:28:03.405Z,16.08
2022-09-21T18:30:31.765Z,16.04
2022-09-21T18:33:27.695Z,15.95
2022-09-21T18:36:27.606Z,15.95
2022-09-21T18:39:13.740Z,15.92
2022-09-21T18:41:46.752Z,15.94
2022-09-21T18:44:13.937Z,15.79
2022-09-21T18:47:03.216Z,15.82
2022-09-21T18:49:38.510Z,15.73
2022-09-21T18:52:24.868Z,15.70
2022-09-21T18:54:52.905Z,15.68
2022-09-21T18:57:23.332Z,15.59
2022-09-21T18:59:50.920Z,15.68
2022-09-21T19:02:20.268Z,15.61
2022-09-21T19:04:49.252Z,15.60
2022-09-21T19:07:35.282Z,15.55
2022-09-21T19:10:14.243Z,15.40
2022-09-21T19:13:03.127Z,15.38
2022-09-21T19:16:01.999Z,15.32
2022-09-21T19:18:46.043Z,15.22
2022-09-21T19:21:32.604Z,15.24
2022-09-21T19:24:05.789Z,15.27
2022-09-21T19:26:55.894Z,15.15
2022-09-21T19:29:40.931Z,15.14
2022-09-21T19:32:17.641Z,15.17
2022-09-21T19:34:45.353Z,15.15
2022-09-21T19:37:13.032Z,15.19
2022-09-21T19:39:40.700Z,15.12
2022-09-21T19:42:09.823Z,15.14
2022-09-21T19:45:01.861Z,15.08
2022-09-21T19:47:31.196Z,14.99
2022-09-21T19:50:15.900Z,14.90
2022-09-21T19:52:43.874Z,14.82
2022-09-21T19:55:35.523Z,14.82
2022-09-21T19:58:21.975Z,14.94
2022-09-21T20:00:54.768Z,14.68
2022-09-21T20:03:31.460Z,14.69
2022-09-21T20:06:06.782Z,14.78
2022-09-21T20:09:06.165Z,14.68
2022-09-21T20:11:44.612Z,14.80
2022-09-21T20:14:20.746Z,14.69
2022-09-21T20:16:55.407Z,14.74
2022-09-21T20:19:44.417Z,14.50
2022-09-21T20:22:17.502Z,14.39
2022-09-21T20:24:52.109Z,14.47
2022-09-21T20:27:34.816Z,14.40
2022-09-21T20:30:11.856Z,14.43
2022-09-21T20:32:41.331Z,14.32
2022-09-21T20:35:30.581Z,14.37
2022-09-21T20:38:02.296Z,14.27
2022-09-21T20:40:31.153Z,14.30
2022-09-21T20:42:59.076Z,14.36
2022-09-21T20:45:26.743Z,14.04
2022-09-21T20:47:55.212Z,13.95
2022-09-21T20:50:25.467Z,14.00
2022-09-21T20:52:52.750Z,13.88
2022-09-21T20:55:20.480Z,13.95
2022-09-21T20:57:47.864Z,13.81
2022-09-21T21:00:16.753Z,14.00
2022-09-21T21:02:44.395Z,13.93
2022-09-21T21:05:11.746Z,13.96
2022-09-21T21:07:59.257Z,13.91
2022-09-21T21:10:26.830Z,14.02
2022-09-21T21:12:54.149Z,14.08
2022-09-21T21:15:21.432Z,14.08
2022-09-21T21:17:49.246Z,14.15
2022-09-21T21:20:17.266Z,14.10
2022-09-21T21:22:45.867Z,14.06
2022-09-21T21:25:13.448Z,14.06
2022-09-21T21:27:40.755Z,14.04
2022-09-21T21:30:09.588Z,13.92
2022-09-21T21:32:37.573Z,14.04
2022-09-21T21:35:05.711Z,14.01
2022-09-21T21:37:33.256Z,14.07
2022-09-21T21:40:01.381Z,14.12
2022-09-21T21:42:29.573Z,13.91
2022-09-21T21:44:57.054Z,14.00
2022-09-21T21:47:41.101Z,13.97
2022-09-21T21:50:09.796Z,13.94
2022-09-21T21:52:37.744Z,13.92
2022-09-21T21:55:05.771Z,13.96
2022-09-21T21:57:33.261Z,13.93
2022-09-21T22:00:00.999Z,13.92
2022-09-21T22:02:29.226Z,13.84
2022-09-21T22:04:56.864Z,13.86
2022-09-21T22:07:24.144Z,13.91
2022-09-21T22:09:51.437Z,14.00
2022-09-21T22:12:18.994Z,13.99
2022-09-21T22:14:47.628Z,13.91
2022-09-21T22:17:14.969Z,14.04
2022-09-21T22:19:42.913Z,13.87
2022-09-21T22:22:10.187Z,13.91
2022-09-21T22:24:37.470Z,13.85
2022-09-21T22:27:05.091Z,13.84
2022-09-21T22:29:32.358Z,13.97
2022-09-21T22:32:00.663Z,13.86
2022-09-21T22:34:28.263Z,13.85
2022-09-21T22:36:56.368Z,13.65
2022-09-21T22:39:23.718Z,13.62
2022-09-21T22:41:51.243Z,13.44
2022-09-21T22:44:18.586Z,13.57
2022-09-21T22:46:45.838Z,13.57
2022-09-21T22:49:13.387Z,13.40
2022-09-21T22:51:40.670Z,13.44
2022-09-21T22:54:08.061Z,13.48
2022-09-21T22:56:35.727Z,13.33
2022-09-21T22:59:04.230Z,13.42
2022-09-21T23:01:39.922Z,13.32
2022-09-21T23:04:10.130Z,13.44
2022-09-21T23:06:39.340Z,13.38
2022-09-21T23:09:09.224Z,13.44
2022-09-21T23:11:43.002Z,13.54
2022-09-21T23:14:11.141Z,13.52
2022-09-21T23:16:38.535Z,13.44
2022-09-21T23:19:06.030Z,13.50
2022-09-21T23:21:33.568Z,13.52
2022-09-21T23:24:02.441Z,13.47
2022-09-21T23:26:31.314Z,13.37
2022-09-21T23:29:00.631Z,13.36
2022-09-21T23:31:28.824Z,13.24
2022-09-21T23:33:58.141Z,13.26
2022-09-21T23:36:30.674Z,13.15
2022-09-21T23:38:58.645Z,13.16
2022-09-21T23:41:28.360Z,13.20
2022-09-21T23:43:56.524Z,13.25
2022-09-21T23:46:32.396Z,13.22
2022-09-21T23:49:00.782Z,13.24
2022-09-21T23:51:29.888Z,13.20
2022-09-21T23:53:58.046Z,13.14
2022-09-21T23:56:25.747Z,13.19
2022-09-21T23:58:53.118Z,13.23
